createdAt,value
2017-06-15T00:01:23.552Z,6.80
2017-06-15T00:03:50.219Z,7.75
2017-06-15T00:06:16.901Z,7.00
2017-06-15T00:08:43.568Z,7.68
2017-06-15T00:11:10.241Z,7.68
2017-06-15T00:13:36.912Z,7.50
2017-06-15T00:16:03.584Z,7.22
2017-06-15T00:18:30.257Z,7.25
2017-06-15T00:20:56.934Z,7.68
2017-06-15T00:23:23.604Z,7.93
2017-06-15T00:25:50.308Z,8.13
2017-06-15T00:28:16.971Z,8.27
2017-06-15T00:30:43.643Z,7.87
2017-06-15T00:33:10.328Z,8.30
2017-06-15T00:35:37.025Z,8.23
2017-06-15T00:38:03.692Z,7.68
2017-06-15T00:40:30.369Z,9.48
2017-06-15T00:42:57.047Z,8.75
2017-06-15T00:45:23.712Z,7.80
2017-06-15T00:47:50.388Z,8.27
2017-06-15T00:50:17.064Z,8.50
2017-06-15T00:52:43.788Z,9.20
2017-06-15T00:55:10.457Z,8.95
2017-06-15T00:57:37.126Z,8.85
2017-06-15T01:00:03.788Z,8.73
2017-06-15T01:02:30.469Z,8.32
2017-06-15T01:04:57.132Z,8.30
2017-06-15T01:07:23.792Z,8.63
2017-06-15T01:09:50.458Z,8.98
2017-06-15T01:12:17.132Z,8.50
2017-06-15T01:14:43.827Z,8.25
2017-06-15T01:17:10.505Z,9.32
2017-06-15T01:19:37.203Z,8.85
2017-06-15T01:22:03.881Z,7.95
2017-06-15T01:24:30.553Z,7.97
2017-06-15T01:26:57.256Z,8.15
2017-06-15T01:29:23.921Z,8.77
2017-06-15T01:31:50.608Z,8.45
2017-06-15T01:34:17.279Z,7.93
2017-06-15T01:36:43.971Z,8.25
2017-06-15T01:39:10.636Z,9.10
2017-06-15T01:41:37.328Z,10.82
2017-06-15T01:44:04.003Z,9.40
2017-06-15T01:46:30.729Z,17.70
2017-06-15T01:48:57.412Z,17.75
2017-06-15T01:51:24.085Z,21.37
2017-06-15T01:53:50.764Z,21.45
2017-06-15T01:56:17.448Z,21.00
2017-06-15T01:58:44.143Z,21.62
2017-06-15T02:01:10.824Z,17.52
2017-06-15T02:03:37.529Z,16.52
2017-06-15T02:06:04.216Z,16.05
2017-06-15T02:08:30.915Z,13.98
2017-06-15T02:10:57.595Z,13.70
2017-06-15T02:13:24.305Z,12.30
2017-06-15T02:15:50.984Z,14.05
2017-06-15T02:18:17.655Z,13.85
2017-06-15T02:20:44.336Z,11.18
2017-06-15T02:23:11.011Z,11.40
2017-06-15T02:25:37.715Z,11.65
2017-06-15T02:28:04.499Z,10.90
2017-06-15T02:30:31.196Z,10.05
2017-06-15T02:32:57.870Z,11.18
2017-06-15T02:35:24.576Z,11.75
2017-06-15T02:37:51.256Z,11.00
2017-06-15T02:40:17.956Z,10.50
2017-06-15T02:42:44.637Z,9.30
2017-06-15T02:45:11.316Z,9.77
2017-06-15T02:47:37.980Z,9.70
2017-06-15T02:50:04.647Z,10.45
2017-06-15T02:52:31.333Z,11.65
2017-06-15T02:54:58.011Z,9.90
2017-06-15T02:57:24.697Z,10.90
2017-06-15T02:59:51.369Z,10.68
2017-06-15T03:02:18.039Z,10.70
2017-06-15T03:04:44.715Z,11.40
2017-06-15T03:07:11.419Z,11.12
2017-06-15T03:09:38.090Z,10.85
2017-06-15T03:12:04.795Z,10.63
2017-06-15T03:14:31.496Z,10.23
2017-06-15T03:16:58.207Z,10.20
2017-06-15T03:19:24.880Z,12.73
2017-06-15T03:21:51.543Z,9.90
2017-06-15T03:24:18.216Z,10.25
2017-06-15T03:26:44.885Z,10.65
2017-06-15T03:29:11.571Z,11.27
2017-06-15T03:31:38.253Z,11.00
2017-06-15T03:34:04.958Z,11.55
2017-06-15T03:36:31.650Z,10.25
2017-06-15T03:38:58.332Z,10.60
2017-06-15T03:41:25.011Z,11.20
2017-06-15T03:56:41.455Z,11.23
2017-06-15T03:59:08.128Z,12.00
2017-06-15T04:01:34.844Z,11.15
2017-06-15T04:04:01.539Z,12.13
2017-06-15T04:06:28.216Z,11.63
2017-06-15T04:08:54.901Z,11.15
2017-06-15T04:11:21.581Z,11.02
2017-06-15T04:13:48.252Z,10.27
2017-06-15T04:16:14.921Z,10.93
2017-06-15T04:18:41.608Z,12.10
2017-06-15T04:21:08.276Z,10.85
2017-06-15T04:23:34.976Z,10.32
2017-06-15T04:26:01.652Z,11.77
2017-06-15T04:28:28.371Z,10.88
2017-06-15T04:30:55.039Z,10.00
2017-06-15T04:33:21.726Z,11.00
2017-06-15T04:35:48.404Z,12.30
2017-06-15T04:38:15.084Z,10.98
2017-06-15T04:40:41.759Z,10.80
2017-06-15T04:43:08.438Z,11.27
2017-06-15T04:45:35.112Z,10.32
2017-06-15T04:48:01.787Z,11.77
2017-06-15T04:50:28.485Z,11.73
2017-06-15T04:52:55.180Z,14.32
2017-06-15T04:55:21.888Z,10.88
2017-06-15T04:57:48.570Z,11.85
2017-06-15T05:00:15.248Z,14.32
2017-06-15T05:02:41.940Z,11.25
2017-06-15T05:05:08.629Z,11.20
2017-06-15T05:07:35.316Z,11.30
2017-06-15T05:10:01.984Z,9.23
2017-06-15T05:12:28.674Z,10.68
2017-06-15T05:14:55.352Z,11.00
2017-06-15T05:17:22.060Z,13.80
2017-06-15T05:19:48.753Z,10.20
2017-06-15T05:22:15.427Z,10.70
2017-06-15T05:24:42.095Z,10.30
2017-06-15T05:27:08.756Z,9.57
2017-06-15T05:29:35.427Z,10.20
2017-06-15T05:32:02.092Z,10.47
2017-06-15T05:34:28.763Z,10.10
2017-06-15T05:36:55.427Z,9.50
2017-06-15T05:39:22.096Z,10.10
2017-06-15T05:41:48.767Z,10.10
2017-06-15T05:44:15.439Z,10.07
2017-06-15T05:46:42.113Z,10.10
2017-06-15T05:49:08.816Z,10.10
2017-06-15T05:51:35.488Z,9.07
2017-06-15T05:54:02.160Z,8.70
2017-06-15T05:56:28.827Z,9.43
2017-06-15T05:58:55.495Z,8.40
2017-06-15T06:01:22.160Z,10.93
2017-06-15T06:03:48.819Z,8.90
2017-06-15T06:06:15.481Z,8.70
2017-06-15T06:08:42.149Z,10.10
2017-06-15T06:11:08.816Z,9.23
2017-06-15T06:13:35.477Z,9.00
2017-06-15T06:16:02.170Z,9.13
2017-06-15T06:18:28.835Z,9.17
2017-06-15T06:20:55.520Z,8.60
2017-06-15T06:23:22.189Z,8.40
2017-06-15T06:25:48.860Z,8.20
2017-06-15T06:28:15.532Z,8.03
2017-06-15T06:30:42.204Z,11.00
2017-06-15T06:33:08.872Z,8.73
2017-06-15T06:35:35.535Z,7.40
2017-06-15T06:38:02.208Z,7.60
2017-06-15T06:40:28.876Z,7.00
2017-06-15T06:42:55.544Z,6.80
2017-06-15T06:45:22.232Z,7.10
2017-06-15T06:47:48.896Z,6.73
2017-06-15T06:50:15.592Z,8.07
2017-06-15T06:52:42.260Z,7.00
2017-06-15T06:55:08.951Z,6.83
2017-06-15T06:57:35.617Z,6.17
2017-06-15T07:00:02.307Z,6.77
2017-06-15T07:02:28.976Z,6.33
2017-06-15T07:04:55.668Z,6.40
2017-06-15T07:07:22.329Z,6.00
2017-06-15T07:09:48.998Z,5.67
2017-06-15T07:12:15.668Z,5.90
2017-06-15T07:14:42.333Z,6.60
2017-06-15T07:17:09.041Z,6.07
2017-06-15T07:19:35.707Z,5.57
2017-06-15T07:22:02.413Z,6.17
2017-06-15T07:24:29.076Z,5.80
2017-06-15T07:26:55.763Z,6.80
2017-06-15T07:29:22.438Z,5.93
2017-06-15T07:31:49.120Z,5.50
2017-06-15T07:34:15.784Z,5.33
2017-06-15T07:36:42.476Z,5.53
2017-06-15T07:39:09.140Z,5.60
2017-06-15T07:41:35.810Z,5.50
2017-06-15T07:44:02.500Z,5.33
2017-06-15T07:46:29.168Z,5.87
2017-06-15T07:48:55.889Z,5.13
2017-06-15T07:51:22.552Z,5.47
2017-06-15T07:53:49.248Z,5.60
2017-06-15T07:56:15.916Z,5.93
2017-06-15T07:58:42.598Z,5.40
2017-06-15T08:01:09.263Z,4.80
2017-06-15T08:03:35.956Z,5.07
2017-06-15T08:06:02.625Z,4.93
2017-06-15T08:08:29.311Z,5.23
2017-06-15T08:10:55.977Z,4.87
2017-06-15T08:13:22.672Z,5.17
2017-06-15T08:15:49.356Z,5.50
2017-06-15T08:18:16.016Z,5.20
2017-06-15T08:20:42.680Z,4.87
2017-06-15T08:23:09.364Z,5.73
2017-06-15T08:25:36.060Z,5.03
2017-06-15T08:28:02.729Z,4.57
2017-06-15T08:30:29.433Z,5.10
2017-06-15T08:32:56.105Z,5.00
2017-06-15T08:35:22.795Z,4.87
2017-06-15T08:37:49.460Z,4.80
2017-06-15T08:40:16.153Z,5.10
2017-06-15T08:42:42.817Z,5.57
2017-06-15T08:45:09.513Z,4.90
2017-06-15T08:47:36.177Z,5.20
2017-06-15T08:50:02.893Z,5.03
2017-06-15T08:52:29.572Z,5.90
2017-06-15T08:54:56.236Z,4.70
2017-06-15T08:57:22.899Z,5.07
2017-06-15T08:59:49.565Z,4.70
2017-06-15T09:02:16.260Z,5.43
2017-06-15T09:04:42.921Z,5.13
2017-06-15T09:07:09.608Z,5.00
2017-06-15T09:09:36.282Z,5.00
2017-06-15T09:12:02.972Z,5.17
2017-06-15T09:14:29.631Z,5.57
2017-06-15T09:16:56.320Z,5.03
2017-06-15T09:19:22.980Z,5.33
2017-06-15T09:21:49.654Z,4.67
2017-06-15T09:24:16.316Z,5.67
2017-06-15T09:26:42.986Z,5.93
2017-06-15T09:29:09.688Z,5.00
2017-06-15T09:31:36.359Z,5.10
2017-06-15T09:34:03.052Z,5.03
2017-06-15T09:36:29.720Z,4.70
2017-06-15T09:38:56.415Z,5.00
2017-06-15T09:41:23.080Z,5.27
2017-06-15T09:43:49.747Z,4.93
2017-06-15T09:46:16.413Z,6.37
2017-06-15T09:48:43.084Z,5.90
2017-06-15T09:51:09.748Z,4.93
2017-06-15T09:53:51.297Z,5.90
2017-06-15T09:56:17.980Z,5.80
2017-06-15T09:58:44.644Z,6.07
2017-06-15T10:01:11.347Z,5.53
2017-06-15T10:03:38.016Z,6.40
2017-06-15T10:06:04.684Z,6.17
2017-06-15T10:08:31.352Z,5.27
2017-06-15T10:10:58.034Z,5.43
2017-06-15T10:13:24.701Z,5.57
2017-06-15T10:15:51.372Z,6.97
2017-06-15T10:18:18.040Z,5.80
2017-06-15T10:20:44.704Z,4.93
2017-06-15T10:23:11.399Z,5.57
2017-06-15T10:25:38.063Z,5.63
2017-06-15T10:28:04.760Z,4.90
2017-06-15T10:30:31.436Z,4.40
2017-06-15T10:32:58.152Z,4.23
2017-06-15T10:35:24.825Z,4.90
2017-06-15T10:37:51.488Z,4.20
2017-06-15T10:40:18.162Z,4.80
2017-06-15T10:42:44.824Z,4.77
2017-06-15T10:45:11.487Z,4.20
2017-06-15T10:47:38.147Z,4.33
2017-06-15T10:50:04.832Z,4.30
2017-06-15T10:52:31.508Z,4.20
2017-06-15T10:54:58.200Z,4.57
2017-06-15T10:57:24.865Z,4.60
2017-06-15T10:59:51.567Z,4.70
2017-06-15T11:02:18.241Z,5.13
2017-06-15T11:04:44.907Z,4.53
2017-06-15T11:07:11.625Z,4.27
2017-06-15T11:09:38.311Z,4.47
2017-06-15T11:12:04.977Z,4.70
2017-06-15T11:14:31.651Z,4.40
2017-06-15T11:16:58.316Z,4.83
2017-06-15T11:19:24.978Z,4.40
2017-06-15T11:21:51.671Z,4.57
2017-06-15T11:24:18.329Z,4.97
2017-06-15T11:26:44.997Z,4.57
2017-06-15T11:29:11.660Z,5.27
2017-06-15T11:31:38.323Z,4.70
2017-06-15T11:34:04.986Z,5.10
2017-06-15T11:36:31.652Z,4.73
2017-06-15T11:38:58.314Z,5.30
2017-06-15T11:41:24.976Z,4.77
2017-06-15T11:43:51.644Z,7.00
2017-06-15T11:46:18.300Z,6.40
2017-06-15T11:48:45.004Z,5.50
2017-06-15T11:51:11.664Z,5.07
2017-06-15T11:53:38.324Z,5.57
2017-06-15T11:56:04.980Z,4.87
2017-06-15T11:58:31.640Z,5.17
2017-06-15T12:00:58.304Z,4.90
2017-06-15T12:03:24.968Z,5.27
2017-06-15T12:05:51.632Z,5.53
2017-06-15T12:08:18.304Z,4.80
2017-06-15T12:10:44.964Z,6.10
2017-06-15T12:13:11.619Z,4.67
2017-06-15T12:15:38.290Z,4.63
2017-06-15T12:18:04.944Z,4.57
2017-06-15T12:20:31.639Z,5.10
2017-06-15T12:22:58.296Z,5.10
2017-06-15T12:25:24.961Z,4.63
2017-06-15T12:27:51.624Z,4.47
2017-06-15T12:30:18.289Z,4.87
2017-06-15T12:32:44.955Z,5.37
2017-06-15T12:35:11.648Z,5.53
2017-06-15T12:37:38.312Z,5.63
2017-06-15T12:40:04.975Z,5.40
2017-06-15T12:42:31.638Z,5.60
2017-06-15T12:44:58.308Z,5.30
2017-06-15T12:47:25.018Z,5.50
2017-06-15T12:49:51.685Z,6.20
2017-06-15T12:52:18.348Z,6.23
2017-06-15T12:54:45.799Z,5.33
2017-06-15T12:57:12.483Z,9.03
2017-06-15T12:59:39.167Z,5.83
2017-06-15T13:02:05.824Z,6.30
2017-06-15T13:04:32.520Z,7.80
2017-06-15T13:06:59.184Z,5.93
2017-06-15T13:09:25.880Z,6.47
2017-06-15T13:11:52.549Z,6.30
2017-06-15T13:14:19.216Z,6.30
2017-06-15T13:16:45.902Z,5.97
2017-06-15T13:19:12.591Z,6.50
2017-06-15T13:21:39.277Z,6.97
2017-06-15T13:24:05.941Z,7.00
2017-06-15T13:26:32.634Z,6.80
2017-06-15T13:28:59.292Z,6.77
2017-06-15T13:31:26.014Z,6.80
2017-06-15T13:33:52.707Z,7.40
2017-06-15T13:36:19.395Z,7.10
2017-06-15T13:38:46.056Z,6.93
2017-06-15T13:41:12.715Z,6.50
2017-06-15T13:43:39.377Z,7.50
2017-06-15T13:46:06.040Z,7.20
2017-06-15T13:48:32.723Z,6.50
2017-06-15T13:50:59.380Z,7.03
2017-06-15T13:53:26.064Z,7.57
2017-06-15T13:55:52.723Z,7.27
2017-06-15T13:58:19.485Z,7.70
2017-06-15T14:00:46.149Z,7.83
2017-06-15T14:03:12.839Z,6.87
2017-06-15T14:05:39.501Z,7.30
2017-06-15T14:08:06.196Z,7.50
2017-06-15T14:10:32.853Z,7.00
2017-06-15T14:12:59.515Z,7.20
2017-06-15T14:15:26.190Z,7.33
2017-06-15T14:17:52.865Z,7.67
2017-06-15T14:20:19.558Z,8.53
2017-06-15T14:22:46.220Z,6.97
2017-06-15T14:25:12.912Z,8.07
2017-06-15T14:27:39.589Z,8.07
2017-06-15T14:30:06.288Z,7.50
2017-06-15T14:32:32.956Z,8.27
2017-06-15T14:34:59.617Z,8.10
2017-06-15T14:37:26.287Z,8.23
2017-06-15T14:39:52.954Z,7.87
2017-06-15T14:42:19.641Z,9.37
2017-06-15T14:44:46.305Z,7.47
2017-06-15T14:47:12.991Z,8.60
2017-06-15T14:49:39.651Z,7.40
2017-06-15T14:52:06.339Z,8.40
2017-06-15T14:54:33.004Z,8.50
2017-06-15T14:56:59.688Z,7.77
2017-06-15T14:59:26.343Z,7.87
2017-06-15T15:01:53.137Z,7.97
2017-06-15T15:04:19.800Z,7.80
2017-06-15T15:06:46.456Z,7.77
2017-06-15T15:09:18.844Z,7.87
2017-06-15T15:11:45.500Z,7.67
2017-06-15T15:14:12.188Z,7.37
2017-06-15T15:29:28.952Z,7.70
2017-06-15T15:31:55.620Z,8.20
2017-06-15T15:34:22.308Z,8.70
2017-06-15T15:36:48.969Z,8.10
2017-06-15T15:39:15.673Z,7.43
2017-06-15T15:41:42.332Z,9.37
2017-06-15T15:44:08.991Z,8.37
2017-06-15T15:46:35.657Z,7.87
2017-06-15T15:49:02.333Z,8.13
2017-06-15T15:51:29.021Z,8.80
2017-06-15T15:53:55.685Z,9.03
2017-06-15T15:56:22.368Z,9.27
2017-06-15T15:58:49.045Z,9.20
2017-06-15T16:01:15.741Z,9.47
2017-06-15T16:03:42.404Z,9.77
2017-06-15T16:06:09.095Z,9.30
2017-06-15T16:08:35.760Z,9.47
2017-06-15T16:11:02.535Z,8.60
2017-06-15T16:13:29.220Z,9.70
2017-06-15T16:15:55.886Z,9.07
2017-06-15T16:18:22.547Z,8.83
2017-06-15T16:20:49.211Z,10.07
2017-06-15T16:23:15.872Z,9.87
2017-06-15T16:25:42.547Z,9.33
2017-06-15T16:28:09.235Z,9.87
2017-06-15T16:30:35.907Z,8.97
2017-06-15T16:33:02.600Z,8.97
2017-06-15T16:35:29.265Z,9.27
2017-06-15T16:37:55.956Z,8.57
2017-06-15T16:40:22.620Z,9.40
2017-06-15T16:42:49.280Z,9.00
2017-06-15T16:45:15.935Z,9.30
2017-06-15T16:47:42.600Z,8.93
2017-06-15T16:50:09.264Z,9.03
2017-06-15T16:52:35.923Z,9.43
2017-06-15T16:55:02.607Z,10.40
2017-06-15T16:57:29.272Z,9.70
2017-06-15T16:59:55.971Z,9.43
2017-06-15T17:02:22.632Z,9.17
2017-06-15T17:04:49.336Z,9.50
2017-06-15T17:07:16.007Z,10.10
2017-06-15T17:09:42.678Z,9.07
2017-06-15T17:12:09.345Z,9.70
2017-06-15T17:14:36.005Z,9.37
2017-06-15T17:17:02.659Z,9.60
2017-06-15T17:19:29.317Z,8.70
2017-06-15T17:21:55.996Z,9.53
2017-06-15T17:24:22.660Z,9.17
2017-06-15T17:26:49.353Z,8.60
2017-06-15T17:29:16.012Z,8.90
2017-06-15T17:31:42.700Z,9.50
2017-06-15T17:34:09.373Z,10.67
2017-06-15T17:36:36.035Z,10.23
2017-06-15T17:39:02.695Z,10.17
2017-06-15T17:41:29.380Z,11.20
2017-06-15T17:43:56.047Z,12.57
2017-06-15T17:46:22.723Z,13.43
2017-06-15T17:48:49.392Z,16.77
2017-06-15T17:51:16.064Z,18.53
2017-06-15T17:53:42.736Z,19.27
2017-06-15T17:58:54.356Z,21.40
2017-06-15T18:01:21.043Z,16.85
2017-06-15T18:03:47.719Z,14.38
2017-06-15T18:06:14.399Z,16.92
2017-06-15T18:08:41.084Z,16.52
2017-06-15T18:11:07.991Z,17.25
2017-06-15T18:13:34.675Z,16.92
2017-06-15T18:16:01.384Z,17.23
2017-06-15T18:18:28.080Z,16.55
2017-06-15T18:20:54.762Z,16.23
2017-06-15T18:23:21.439Z,17.17
2017-06-15T18:25:48.158Z,16.20
2017-06-15T18:28:14.839Z,23.25
2017-06-15T18:30:41.556Z,17.35
2017-06-15T18:33:08.244Z,17.42
2017-06-15T18:35:35.050Z,18.87
2017-06-15T18:38:01.727Z,18.90
2017-06-15T18:40:28.404Z,18.75
2017-06-15T18:42:55.093Z,17.70
2017-06-15T18:45:21.772Z,19.90
2017-06-15T18:47:48.457Z,19.17
2017-06-15T18:50:15.147Z,17.42
2017-06-15T18:52:41.864Z,19.85
2017-06-15T18:55:08.558Z,17.50
2017-06-15T18:57:35.268Z,19.60
2017-06-15T19:00:01.951Z,18.85
2017-06-15T19:02:28.848Z,20.75
2017-06-15T19:04:55.536Z,20.42
2017-06-15T19:07:22.216Z,19.95
2017-06-15T19:09:49.015Z,16.50
2017-06-15T19:12:16.052Z,16.92
2017-06-15T19:14:42.773Z,16.42
2017-06-15T19:17:09.479Z,17.77
2017-06-15T19:19:36.162Z,15.27
2017-06-15T19:22:02.840Z,15.48
2017-06-15T19:24:29.521Z,16.00
2017-06-15T19:26:56.199Z,15.43
2017-06-15T19:29:22.900Z,16.00
2017-06-15T19:31:49.579Z,16.42
2017-06-15T19:34:16.272Z,17.70
2017-06-15T19:36:42.952Z,17.60
2017-06-15T19:39:09.636Z,13.30
2017-06-15T19:41:36.347Z,15.35
2017-06-15T19:44:03.024Z,16.02
2017-06-15T19:46:29.728Z,16.50
2017-06-15T19:48:56.410Z,14.65
2017-06-15T19:51:23.115Z,15.30
2017-06-15T19:53:49.795Z,14.55
2017-06-15T19:56:16.483Z,15.70
2017-06-15T19:58:43.191Z,13.98
2017-06-15T20:01:09.871Z,13.40
2017-06-15T20:03:36.583Z,16.90
2017-06-15T20:06:03.261Z,17.30
2017-06-15T20:08:29.961Z,16.00
2017-06-15T20:10:56.636Z,16.02
2017-06-15T20:13:23.361Z,17.40
2017-06-15T20:15:50.041Z,17.42
2017-06-15T20:18:16.720Z,17.05
2017-06-15T20:20:49.091Z,17.00
2017-06-15T20:23:15.767Z,18.25
2017-06-15T20:25:43.371Z,18.52
2017-06-15T20:28:10.047Z,18.58
2017-06-15T20:30:36.743Z,18.62
2017-06-15T20:33:03.431Z,18.48
2017-06-15T20:35:30.132Z,18.48
2017-06-15T20:37:56.804Z,21.15
2017-06-15T20:40:23.513Z,19.23
2017-06-15T20:42:50.192Z,20.60
2017-06-15T20:45:16.871Z,20.50
2017-06-15T20:47:43.547Z,19.12
2017-06-15T20:50:10.223Z,21.50
2017-06-15T20:52:36.900Z,19.35
2017-06-15T20:55:03.580Z,20.58
2017-06-15T20:57:30.288Z,22.40
2017-06-15T20:59:56.965Z,24.12
2017-06-15T21:02:23.663Z,24.77
2017-06-15T21:04:50.340Z,25.40
2017-06-15T21:07:17.046Z,27.87
2017-06-15T21:09:43.724Z,28.12
2017-06-15T21:12:10.395Z,27.77
2017-06-15T21:14:37.075Z,27.33
2017-06-15T21:17:03.753Z,28.92
2017-06-15T21:19:30.477Z,27.95
2017-06-15T21:21:57.156Z,33.70
2017-06-15T21:24:23.860Z,31.25
2017-06-15T21:26:50.540Z,29.27
2017-06-15T21:29:17.243Z,31.77
2017-06-15T21:31:43.923Z,32.58
2017-06-15T21:34:10.639Z,32.40
2017-06-15T21:36:37.312Z,30.98
2017-06-15T21:39:03.982Z,33.60
2017-06-15T21:41:30.652Z,30.95
2017-06-15T21:43:57.355Z,34.40
2017-06-15T21:46:24.052Z,35.45
2017-06-15T21:48:50.743Z,36.83
2017-06-15T21:51:17.439Z,36.97
2017-06-15T21:53:44.111Z,36.42
2017-06-15T21:56:10.809Z,37.17
2017-06-15T21:58:37.488Z,38.13
2017-06-15T22:01:04.209Z,35.70
2017-06-15T22:03:30.883Z,36.78
2017-06-15T22:05:57.555Z,34.75
2017-06-15T22:08:24.231Z,37.70
2017-06-15T22:10:50.903Z,36.40
2017-06-15T22:13:17.598Z,36.75
2017-06-15T22:15:44.275Z,37.47
2017-06-15T22:18:10.972Z,34.55
2017-06-15T22:20:37.647Z,36.75
2017-06-15T22:23:04.349Z,36.63
2017-06-15T22:25:31.027Z,34.95
2017-06-15T22:27:57.742Z,35.95
2017-06-15T22:30:24.417Z,35.92
2017-06-15T22:32:51.088Z,37.25
2017-06-15T22:35:17.751Z,37.58
2017-06-15T22:37:44.428Z,33.58
2017-06-15T22:40:11.101Z,35.30
2017-06-15T22:42:37.811Z,34.25
2017-06-15T22:45:04.499Z,35.78
2017-06-15T22:47:31.176Z,36.08
2017-06-15T22:49:57.879Z,34.13
2017-06-15T22:52:24.548Z,38.35
2017-06-15T22:54:51.256Z,34.40
2017-06-15T22:57:17.929Z,42.30
2017-06-15T22:59:44.608Z,41.60
2017-06-15T23:02:11.294Z,41.75
2017-06-15T23:04:37.969Z,37.00
2017-06-15T23:07:04.647Z,43.67
2017-06-15T23:09:31.326Z,40.72
2017-06-15T23:11:58.027Z,44.13
2017-06-15T23:14:24.705Z,49.67
2017-06-15T23:16:51.408Z,48.70
2017-06-15T23:19:18.097Z,43.42
2017-06-15T23:21:44.800Z,44.20
2017-06-15T23:24:11.471Z,42.58
2017-06-15T23:26:38.177Z,42.65
2017-06-15T23:29:04.853Z,43.85
2017-06-15T23:31:31.524Z,44.67
2017-06-15T23:33:58.203Z,41.92
2017-06-15T23:36:24.875Z,41.83
2017-06-15T23:38:51.547Z,43.47
2017-06-15T23:41:18.224Z,43.92
2017-06-15T23:43:44.929Z,43.08
2017-06-15T23:46:11.610Z,44.28
2017-06-15T23:48:38.321Z,40.90
2017-06-15T23:51:05.000Z,42.88
2017-06-15T23:53:31.680Z,42.53
2017-06-15T23:55:58.351Z,41.95
2017-06-15T23:58:25.036Z,46.45
